ADDS METAR Data INFO
IDs: Format: Raw Decoded Include TAF

Data at: 1817 UTC 24 Nov 2017

KTPL 241751Z AUTO 17008KT 10SM CLR 22/04 A2996 RMK AO2 SLP157 T02170039 10217 20050 58013
KTPL 241651Z AUTO 18006KT 10SM CLR 18/04 A2999 RMK AO2 SLP170 T01830039
KTPL 241551Z AUTO 20005KT 10SM CLR 15/02 A3000 RMK AO2 SLP175 T01500022
KTPL 241451Z AUTO 19006KT 10SM CLR 12/01 A3000 RMK AO2 SLP174 T01170011 50004
KTPL 241351Z AUTO 17003KT 10SM CLR 07/01 A3001 RMK AO2 SLP179 T00670011
KTPL 241251Z AUTO 18008KT 10SM CLR 05/00 A3000 RMK AO2 SLP177 T00500000
KTPL 241151Z AUTO 10SM CLR 05/00 A2998 RMK AO2 SLP171 T00500000 10083 20044 56010
KTPL 241051Z AUTO 17008KT 10SM CLR 06/00 A2999 RMK AO2 SLP170 T00560000
KTPL 240951Z AUTO 18007KT 10SM CLR 07/01 A3000 RMK AO2 SLP173 T00670006
KTPL 240851Z AUTO 17005KT 10SM CLR 06/00 A3002 RMK AO2 SLP179 T00610000 58015
KTPL 240751Z AUTO 17007KT 10SM CLR 07/00 A3003 RMK AO2 SLP183 T00670000
KTPL 240651Z AUTO 19004KT 10SM CLR 07/M01 A3005 RMK AO2 SLP192 T00721006
KTPL 240551Z AUTO 18006KT 10SM CLR 08/M01 A3006 RMK AO2 SLP195 T00831006 10156 20083 402061022 58009
KTPL 240451Z AUTO 16005KT 10SM CLR 09/M01 A3008 RMK AO2 SLP201 T00941006
KTPL 240351Z AUTO 17008KT 10SM CLR 09/00 A3008 RMK AO2 SLP203 T00940000
KTPL 240251Z AUTO 17006KT 10SM CLR 12/M01 A3009 RMK AO2 SLP208 T01171011 53005
KTPL 240151Z AUTO 16005KT 10SM CLR 13/M02 A3007 RMK AO2 SLP202 T01281017
KTPL 240051Z AUTO 14007KT 10SM CLR 13/M02 A3008 RMK AO2 SLP200 T01331017 TSNO
KTPL 232351Z AUTO 13005KT 10SM CLR 16/M02 A3007 RMK AO2 SLP201 T01561017 10206 20156 55002
KTPL 232251Z AUTO 12005KT 10SM CLR 19/M01 A3007 RMK AO2 SLP202 T01891011
KTPL 232151Z AUTO 24003KT 9SM CLR 21/M02 A3007 RMK AO2 SLP199 T02061022
KTPL 232051Z AUTO 19004KT 10SM CLR 20/M02 A3008 RMK AO2 SLP204 T02001022 56033
KTPL 231951Z AUTO VRB04KT 10SM CLR 19/M02 A3010 RMK AO2 SLP211 T01941022
KTPL 231851Z AUTO 18004KT 10SM CLR 18/M03 A3013 RMK AO2 SLP223 T01831033
KTPL 231751Z AUTO VRB03KT 10SM CLR 17/M03 A3018 RMK AO2 SLP238 T01671033 10172 21022 58018
KTPL 231651Z AUTO 19003KT 10SM CLR 13/M02 A3021 RMK AO2 SLP248 T01331022
KTPL 231551Z AUTO 19004KT 10SM CLR 12/M01 A3023 RMK AO2 SLP252 T01171011
KTPL 231451Z AUTO 00000KT 10SM CLR 07/00 A3023 RMK AO2 SLP256 T00670000 52007
KTPL 231351Z AUTO 00000KT 10SM CLR 01/M02 A3023 RMK AO2 SLP253 T00061022 FZRANO
KTPL 231251Z AUTO 34005KT 10SM CLR M02/M03 A3021 RMK AO2 SLP250 T10171033 FZRANO
KTPL 231151Z AUTO 36003KT 10SM CLR M01/M04 A3021 RMK AO2 SLP246 T10061044 10022 21017 56009 FZRANO
KTPL 231051Z AUTO 34003KT 10SM CLR M01/M04 A3022 RMK AO2 SLP251 T10061044 FZRANO
KTPL 230951Z AUTO 34004KT 10SM CLR M01/M04 A3023 RMK AO2 SLP254 T10061039 FZRANO
KTPL 230851Z AUTO 34004KT 10SM CLR 01/M04 A3024 RMK AO2 SLP256 T00061039 56011 FZRANO
KTPL 230751Z AUTO 34005KT 10SM CLR 01/M04 A3025 RMK AO2 SLP259 T00061044 FZRANO
KTPL 230651Z AUTO 33004KT 10SM CLR 02/M03 A3026 RMK AO2 SLP263 T00171033 FZRANO